createdAt,value
2022-08-19T00:02:50.314Z,92.56
2022-08-19T00:05:54.095Z,92.41
2022-08-19T00:09:01.764Z,92.71
2022-08-19T00:12:06.264Z,92.69
2022-08-19T00:15:15.723Z,92.47
2022-08-19T00:18:19.331Z,92.39
2022-08-19T00:21:23.174Z,92.25
2022-08-19T00:24:29.740Z,92.11
2022-08-19T00:27:33.883Z,92.26
2022-08-19T00:30:37.799Z,91.99
2022-08-19T00:33:41.792Z,91.88
2022-08-19T00:36:46.115Z,91.92
2022-08-19T00:39:51.978Z,91.74
2022-08-19T00:42:55.893Z,91.68
2022-08-19T00:45:59.685Z,91.34
2022-08-19T00:49:08.671Z,91.21
2022-08-19T00:52:18.759Z,91.24
2022-08-19T00:55:29.822Z,90.81
2022-08-19T00:58:37.592Z,90.92
2022-08-19T01:01:45.626Z,90.95
2022-08-19T01:04:49.298Z,90.94
2022-08-19T01:07:53.968Z,91.00
2022-08-19T01:11:02.143Z,90.98
2022-08-19T01:14:07.508Z,91.38
2022-08-19T01:17:13.589Z,91.50
2022-08-19T01:20:22.398Z,91.42
2022-08-19T01:23:43.510Z,91.48
2022-08-19T01:26:48.258Z,91.57
2022-08-19T01:29:52.812Z,91.38
2022-08-19T01:32:57.714Z,91.56
2022-08-19T01:36:09.518Z,91.74
2022-08-19T01:39:19.202Z,91.64
2022-08-19T01:42:29.020Z,91.75
2022-08-19T01:45:36.516Z,91.98
2022-08-19T01:48:44.762Z,91.89
2022-08-19T01:51:50.503Z,91.93
2022-08-19T01:54:55.535Z,91.68
2022-08-19T01:58:04.964Z,91.77
2022-08-19T02:01:10.295Z,91.73
2022-08-19T02:04:14.056Z,91.60
2022-08-19T02:07:17.732Z,91.58
2022-08-19T02:10:24.994Z,91.22
2022-08-19T02:13:29.696Z,91.19
2022-08-19T02:16:35.589Z,91.13
2022-08-19T02:19:41.010Z,90.93
2022-08-19T02:22:45.958Z,91.12
2022-08-19T02:25:51.228Z,91.16
2022-08-19T02:28:56.201Z,91.13
2022-08-19T02:31:59.911Z,91.24
2022-08-19T02:35:04.456Z,91.19
2022-08-19T02:38:28.396Z,91.12
2022-08-19T02:41:36.350Z,90.86
2022-08-19T02:44:40.101Z,90.92
2022-08-19T02:47:44.183Z,90.87
2022-08-19T02:50:51.933Z,91.18
2022-08-19T02:53:57.676Z,90.68
2022-08-19T02:57:02.802Z,90.71
2022-08-19T03:00:09.459Z,90.81
2022-08-19T03:03:13.149Z,90.73
2022-08-19T03:06:19.002Z,90.51
2022-08-19T03:09:23.027Z,90.47
2022-08-19T03:12:28.065Z,90.37
2022-08-19T03:15:31.739Z,90.64
2022-08-19T03:18:35.266Z,90.64
2022-08-19T03:21:39.256Z,90.51
2022-08-19T03:24:43.563Z,90.65
2022-08-19T03:27:50.043Z,90.73
2022-08-19T03:31:02.790Z,90.75
2022-08-19T03:34:08.187Z,90.44
2022-08-19T03:37:14.318Z,90.23
2022-08-19T03:40:19.980Z,90.17
2022-08-19T03:43:25.583Z,90.18
2022-08-19T03:46:31.653Z,89.67
2022-08-19T03:49:36.927Z,89.42
2022-08-19T03:52:40.683Z,88.63
2022-08-19T03:55:49.065Z,88.27
2022-08-19T03:58:54.747Z,87.93
2022-08-19T04:02:01.641Z,87.39
2022-08-19T04:05:06.580Z,87.06
2022-08-19T04:08:13.759Z,86.96
2022-08-19T04:11:22.692Z,86.79
2022-08-19T04:14:47.698Z,86.58
2022-08-19T04:17:51.390Z,86.42
2022-08-19T04:20:55.001Z,86.31
2022-08-19T04:23:59.858Z,86.06
2022-08-19T04:27:05.162Z,85.84
2022-08-19T04:30:12.209Z,85.67
2022-08-19T04:33:19.697Z,85.43
2022-08-19T04:36:36.079Z,85.54
2022-08-19T04:39:58.791Z,85.56
2022-08-19T04:43:06.204Z,85.41
2022-08-19T04:46:28.517Z,85.68
2022-08-19T04:49:37.904Z,85.72
2022-08-19T04:52:44.038Z,85.87
2022-08-19T04:55:47.746Z,86.10
2022-08-19T04:58:53.082Z,86.28
2022-08-19T05:01:58.010Z,85.99
2022-08-19T05:05:02.408Z,85.90
2022-08-19T05:08:06.979Z,86.25
2022-08-19T05:11:14.925Z,86.59
2022-08-19T05:14:18.642Z,86.79
2022-08-19T05:17:27.671Z,86.75
2022-08-19T05:20:50.232Z,86.76
2022-08-19T05:23:53.831Z,87.08
2022-08-19T05:26:59.023Z,87.53
2022-08-19T05:30:03.138Z,87.61
2022-08-19T05:33:10.435Z,87.58
2022-08-19T05:36:14.404Z,87.74
2022-08-19T05:39:21.478Z,88.06
2022-08-19T05:42:25.398Z,88.65
2022-08-19T05:45:30.017Z,88.91
2022-08-19T05:48:35.037Z,88.64
2022-08-19T05:51:39.499Z,88.84
2022-08-19T05:54:44.279Z,88.80
2022-08-19T05:57:48.460Z,88.49
2022-08-19T06:00:53.500Z,88.95
2022-08-19T06:03:58.607Z,88.62
2022-08-19T06:07:12.704Z,88.69
2022-08-19T06:10:17.103Z,88.85
2022-08-19T06:13:21.049Z,88.36
2022-08-19T06:16:25.167Z,87.52
2022-08-19T06:19:33.166Z,83.57
2022-08-19T06:22:41.531Z,84.44
2022-08-19T06:25:45.183Z,82.81
2022-08-19T06:28:50.603Z,82.64
2022-08-19T06:31:59.429Z,81.76
2022-08-19T06:35:04.654Z,81.01
2022-08-19T06:38:08.284Z,80.56
2022-08-19T06:41:12.325Z,79.88
2022-08-19T06:44:17.098Z,79.59
2022-08-19T06:47:28.964Z,79.42
2022-08-19T06:50:34.186Z,78.86
2022-08-19T06:53:41.305Z,79.19
2022-08-19T06:56:46.848Z,78.43
2022-08-19T06:59:50.711Z,76.90
2022-08-19T07:02:58.665Z,76.55
2022-08-19T07:06:09.852Z,76.92
2022-08-19T07:09:25.095Z,78.14
2022-08-19T07:12:30.817Z,77.44
2022-08-19T07:15:34.774Z,77.38
2022-08-19T07:18:40.580Z,76.91
2022-08-19T07:21:53.661Z,76.28
2022-08-19T07:24:57.408Z,75.98
2022-08-19T07:28:01.567Z,75.91
2022-08-19T07:31:05.432Z,75.91
2022-08-19T07:34:12.863Z,75.61
2022-08-19T07:37:18.518Z,75.17
2022-08-19T07:40:22.327Z,74.38
2022-08-19T07:43:31.433Z,74.24
2022-08-19T07:46:47.329Z,71.66
2022-08-19T07:49:53.015Z,72.17
2022-08-19T07:52:58.046Z,70.49
2022-08-19T07:56:05.151Z,70.28
2022-08-19T07:59:10.231Z,69.82
2022-08-19T08:02:14.022Z,69.08
2022-08-19T08:05:35.747Z,68.89
2022-08-19T08:08:58.105Z,68.00
2022-08-19T08:12:32.779Z,67.25
2022-08-19T08:15:46.282Z,66.72
2022-08-19T08:18:50.541Z,67.29
2022-08-19T08:21:59.325Z,66.21
2022-08-19T08:25:08.714Z,64.75
2022-08-19T08:28:17.531Z,66.29
2022-08-19T08:31:22.191Z,64.10
2022-08-19T08:34:26.119Z,61.18
2022-08-19T08:37:29.804Z,60.43
2022-08-19T08:40:46.714Z,59.66
2022-08-19T08:43:54.451Z,61.38
2022-08-19T08:47:07.888Z,61.25
2022-08-19T08:50:20.338Z,60.64
2022-08-19T08:53:29.719Z,60.51
2022-08-19T08:56:36.884Z,61.07
2022-08-19T08:59:45.495Z,59.46
2022-08-19T09:02:50.782Z,59.86
2022-08-19T09:06:03.542Z,59.11
2022-08-19T09:09:18.877Z,59.77
2022-08-19T09:12:35.303Z,60.18
2022-08-19T09:15:47.573Z,57.90
2022-08-19T09:18:55.390Z,59.67
2022-08-19T09:22:01.672Z,56.37
2022-08-19T09:25:06.973Z,57.59
2022-08-19T09:28:15.233Z,56.46
2022-08-19T09:31:30.535Z,55.73
2022-08-19T09:34:37.972Z,56.31
2022-08-19T09:37:47.685Z,55.81
2022-08-19T09:40:51.644Z,56.42
2022-08-19T09:43:59.061Z,54.77
2022-08-19T09:47:02.921Z,56.17
2022-08-19T09:50:08.719Z,55.32
2022-08-19T09:53:12.363Z,56.38
2022-08-19T09:56:16.791Z,55.84
2022-08-19T09:59:24.830Z,55.45
2022-08-19T10:02:28.905Z,55.33
2022-08-19T10:05:55.475Z,55.01
2022-08-19T10:08:59.462Z,55.89
2022-08-19T10:12:04.636Z,56.47
2022-08-19T10:15:13.411Z,55.20
2022-08-19T10:18:19.260Z,55.93
2022-08-19T10:21:27.934Z,55.21
2022-08-19T10:24:31.824Z,55.63
2022-08-19T10:27:36.027Z,56.22
2022-08-19T10:30:42.881Z,53.61
2022-08-19T10:33:53.629Z,54.87
2022-08-19T10:37:00.983Z,54.89
2022-08-19T10:40:08.734Z,55.07
2022-08-19T10:43:12.476Z,55.21
2022-08-19T10:46:18.277Z,53.35
2022-08-19T10:49:23.899Z,52.96
2022-08-19T10:52:35.446Z,53.76
2022-08-19T10:56:11.415Z,53.44
2022-08-19T10:59:15.682Z,53.49
2022-08-19T11:02:20.780Z,53.62
2022-08-19T11:05:24.626Z,52.29
2022-08-19T11:08:28.532Z,52.87
2022-08-19T11:11:33.143Z,51.76
2022-08-19T11:14:42.072Z,51.83
2022-08-19T11:17:47.071Z,53.28
2022-08-19T11:20:50.714Z,52.85
2022-08-19T11:23:58.036Z,52.85
2022-08-19T11:27:07.267Z,52.99
2022-08-19T11:30:13.628Z,52.47
2022-08-19T11:33:19.329Z,52.79
2022-08-19T11:36:24.194Z,52.01
2022-08-19T11:39:31.774Z,51.39
2022-08-19T11:42:53.144Z,51.14
2022-08-19T11:45:57.357Z,51.58
2022-08-19T11:49:04.348Z,50.29
2022-08-19T11:52:08.639Z,50.13
2022-08-19T11:55:12.641Z,49.49
2022-08-19T11:58:19.408Z,48.56
2022-08-19T12:01:26.138Z,48.02
2022-08-19T12:04:31.223Z,48.15
2022-08-19T12:07:37.989Z,47.31
2022-08-19T12:10:43.190Z,46.80
2022-08-19T12:13:47.301Z,46.55
2022-08-19T12:16:51.444Z,46.12
2022-08-19T12:19:57.957Z,46.02
2022-08-19T12:23:05.041Z,45.42
2022-08-19T12:26:09.127Z,45.38
2022-08-19T12:29:12.743Z,45.92
2022-08-19T12:32:17.916Z,44.84
2022-08-19T12:35:23.656Z,44.96
2022-08-19T12:38:30.004Z,44.38
2022-08-19T12:41:33.617Z,44.81
2022-08-19T12:44:38.194Z,43.69
2022-08-19T12:47:45.365Z,43.56
2022-08-19T12:50:52.610Z,43.86
2022-08-19T12:57:18.526Z,43.59
2022-08-19T13:00:24.351Z,43.34
2022-08-19T13:03:30.374Z,42.73
2022-08-19T13:06:35.363Z,43.34
2022-08-19T13:09:38.989Z,43.34
2022-08-19T13:12:43.119Z,43.38
2022-08-19T13:15:47.235Z,42.42
2022-08-19T13:18:52.932Z,41.95
2022-08-19T13:22:00.364Z,42.15
2022-08-19T13:25:04.532Z,41.81
2022-08-19T13:28:08.177Z,42.12
2022-08-19T13:31:36.586Z,40.64
2022-08-19T13:34:40.465Z,39.40
2022-08-19T13:37:46.493Z,39.23
2022-08-19T13:40:52.500Z,37.85
2022-08-19T13:43:56.320Z,36.21
2022-08-19T13:47:07.953Z,34.66
2022-08-19T13:50:13.855Z,34.38
2022-08-19T13:53:19.752Z,34.05
2022-08-19T13:56:26.317Z,34.02
2022-08-19T13:59:30.304Z,34.52
2022-08-19T14:02:33.923Z,34.36
2022-08-19T14:05:40.498Z,34.19
2022-08-19T14:08:46.334Z,33.90
2022-08-19T14:11:51.888Z,34.52
2022-08-19T14:14:55.516Z,34.82
2022-08-19T14:17:59.832Z,34.53
2022-08-19T14:21:04.059Z,34.95
2022-08-19T14:24:09.472Z,35.73
2022-08-19T14:27:13.247Z,35.61
2022-08-19T14:30:22.212Z,35.60
2022-08-19T14:33:28.468Z,36.75
2022-08-19T14:36:38.937Z,36.99
2022-08-19T14:39:45.655Z,37.03
2022-08-19T14:42:50.181Z,36.94
2022-08-19T14:45:53.880Z,36.52
2022-08-19T14:48:59.883Z,37.72
2022-08-19T14:52:04.939Z,37.71
2022-08-19T14:55:11.424Z,37.30
2022-08-19T14:58:28.833Z,37.24
2022-08-19T15:01:34.049Z,38.22
2022-08-19T15:04:37.724Z,38.09
2022-08-19T15:07:41.925Z,38.07
2022-08-19T15:10:48.715Z,38.79
2022-08-19T15:13:53.987Z,38.96
2022-08-19T15:16:57.561Z,39.16
2022-08-19T15:20:01.633Z,38.95
2022-08-19T15:23:05.444Z,38.82
2022-08-19T15:26:14.262Z,38.96
2022-08-19T15:29:19.928Z,38.98
2022-08-19T15:32:24.247Z,38.93
2022-08-19T15:35:28.200Z,39.10
2022-08-19T15:38:34.464Z,39.86
2022-08-19T15:41:45.312Z,40.56
2022-08-19T15:44:49.131Z,40.62
2022-08-19T15:47:54.183Z,40.02
2022-08-19T15:50:57.959Z,40.13
2022-08-19T15:54:02.915Z,40.33
2022-08-19T15:57:25.254Z,40.00
2022-08-19T16:00:46.570Z,40.13
2022-08-19T16:04:16.576Z,39.71
2022-08-19T16:07:22.307Z,39.77
2022-08-19T16:10:28.218Z,39.45
2022-08-19T16:13:33.534Z,39.51
2022-08-19T16:16:39.835Z,39.64
2022-08-19T16:19:43.628Z,39.95
2022-08-19T16:22:47.324Z,39.69
2022-08-19T16:25:51.266Z,39.69
2022-08-19T16:28:57.311Z,39.22
2022-08-19T16:32:01.138Z,39.12
2022-08-19T16:35:07.908Z,39.06
2022-08-19T16:38:11.589Z,39.38
2022-08-19T16:41:15.471Z,39.09
2022-08-19T16:44:21.311Z,39.33
2022-08-19T16:47:24.935Z,39.22
2022-08-19T16:50:48.150Z,39.07
2022-08-19T16:53:53.741Z,38.87
2022-08-19T16:56:57.319Z,38.84
2022-08-19T17:00:05.501Z,39.45
2022-08-19T17:03:14.922Z,39.37
2022-08-19T17:06:24.125Z,39.40
2022-08-19T17:09:27.863Z,39.29
2022-08-19T17:12:37.671Z,39.15
2022-08-19T17:15:43.639Z,38.92
2022-08-19T17:18:52.295Z,38.81
2022-08-19T17:21:57.828Z,39.17
2022-08-19T17:25:01.512Z,39.59
2022-08-19T17:28:09.161Z,39.31
2022-08-19T17:31:15.249Z,39.14
2022-08-19T17:34:19.065Z,39.10
2022-08-19T17:37:24.170Z,39.50
2022-08-19T17:40:29.916Z,39.88
2022-08-19T17:43:40.091Z,40.12
2022-08-19T17:46:49.281Z,41.10
2022-08-19T17:49:53.472Z,41.09
2022-08-19T17:52:57.807Z,41.26
2022-08-19T17:56:01.410Z,41.58
2022-08-19T17:59:05.670Z,41.77
2022-08-19T18:02:13.881Z,42.10
2022-08-19T18:05:33.155Z,42.50
2022-08-19T18:08:38.885Z,42.41
2022-08-19T18:11:43.919Z,42.69
2022-08-19T18:14:48.636Z,43.30
2022-08-19T18:17:53.993Z,43.66
2022-08-19T18:20:58.122Z,43.86
2022-08-19T18:24:02.146Z,44.28
2022-08-19T18:27:06.943Z,44.38
2022-08-19T18:30:12.473Z,44.42
2022-08-19T18:33:17.485Z,44.72
2022-08-19T18:36:49.981Z,45.02
2022-08-19T18:40:03.860Z,45.42
2022-08-19T18:43:25.250Z,45.88
2022-08-19T18:46:57.999Z,46.56
2022-08-19T18:50:08.327Z,47.76
2022-08-19T18:53:16.435Z,48.73
2022-08-19T18:56:23.983Z,49.51
2022-08-19T18:59:30.376Z,50.11
2022-08-19T19:02:40.044Z,50.57
2022-08-19T19:05:45.543Z,50.85
2022-08-19T19:08:50.458Z,51.17
2022-08-19T19:11:59.041Z,51.74
2022-08-19T19:15:05.998Z,51.93
2022-08-19T19:18:09.763Z,52.34
2022-08-19T19:21:14.737Z,53.55
2022-08-19T19:24:22.567Z,54.29
2022-08-19T19:27:27.290Z,55.29
2022-08-19T19:30:31.394Z,55.56
2022-08-19T19:33:35.112Z,55.53
2022-08-19T19:36:40.408Z,55.37
2022-08-19T19:39:46.347Z,55.21
2022-08-19T19:42:52.019Z,55.77
2022-08-19T19:45:55.984Z,56.28
2022-08-19T19:49:00.474Z,56.74
2022-08-19T19:52:07.731Z,57.02
2022-08-19T19:55:19.284Z,57.13
2022-08-19T19:58:28.931Z,57.21
2022-08-19T20:01:32.954Z,57.51
2022-08-19T20:04:37.502Z,57.92
2022-08-19T20:07:59.732Z,58.47
2022-08-19T20:11:07.024Z,58.65
2022-08-19T20:14:15.435Z,58.72
2022-08-19T20:17:20.696Z,58.91
2022-08-19T20:20:24.407Z,58.99
2022-08-19T20:23:29.477Z,59.52
2022-08-19T20:26:33.816Z,59.82
2022-08-19T20:29:44.334Z,60.10
2022-08-19T20:32:50.211Z,60.22
2022-08-19T20:35:54.440Z,60.69
2022-08-19T20:39:00.085Z,61.11
2022-08-19T20:42:03.711Z,60.93
2022-08-19T20:45:09.908Z,61.11
2022-08-19T20:48:32.627Z,61.64
2022-08-19T20:51:36.244Z,61.80
2022-08-19T20:54:43.340Z,61.72
2022-08-19T20:57:46.931Z,61.96
2022-08-19T21:00:52.443Z,62.07
2022-08-19T21:03:56.184Z,62.84
2022-08-19T21:07:00.252Z,63.30
2022-08-19T21:10:06.894Z,63.84
2022-08-19T21:13:10.522Z,63.88
2022-08-19T21:16:14.279Z,63.75
2022-08-19T21:19:22.043Z,64.25
2022-08-19T21:22:27.603Z,64.07
2022-08-19T21:25:32.703Z,64.32
2022-08-19T21:28:37.802Z,64.96
2022-08-19T21:31:41.689Z,65.18
2022-08-19T21:34:46.986Z,65.29
2022-08-19T21:37:50.681Z,65.23
2022-08-19T21:40:56.226Z,65.73
2022-08-19T21:43:59.846Z,65.91
2022-08-19T21:47:04.615Z,66.37
2022-08-19T21:50:10.724Z,66.25
2022-08-19T21:53:17.629Z,66.12
2022-08-19T21:56:23.351Z,66.09
2022-08-19T21:59:27.043Z,66.64
2022-08-19T22:02:31.147Z,66.81
2022-08-19T22:05:35.711Z,66.62
2022-08-19T22:08:42.253Z,66.75
2022-08-19T22:11:47.347Z,66.54
2022-08-19T22:14:52.585Z,66.81
2022-08-19T22:18:01.306Z,66.88
2022-08-19T22:21:11.268Z,66.82
2022-08-19T22:24:15.539Z,67.01
2022-08-19T22:27:21.709Z,66.92
2022-08-19T22:30:33.509Z,67.14
2022-08-19T22:33:38.419Z,67.29
2022-08-19T22:36:42.164Z,67.31
2022-08-19T22:39:45.885Z,67.62
2022-08-19T22:43:00.169Z,67.53
2022-08-19T22:46:06.503Z,67.64
2022-08-19T22:49:21.230Z,67.77
2022-08-19T22:52:23.856Z,68.11
2022-08-19T22:55:28.846Z,67.76
2022-08-19T22:58:34.247Z,67.65
2022-08-19T23:01:39.056Z,67.52
2022-08-19T23:04:42.673Z,67.59
2022-08-19T23:07:52.084Z,67.48
2022-08-19T23:10:56.659Z,67.07
2022-08-19T23:14:01.690Z,66.99
2022-08-19T23:17:06.120Z,66.70
2022-08-19T23:20:14.400Z,66.70
2022-08-19T23:23:19.871Z,66.14
2022-08-19T23:26:23.724Z,66.96
2022-08-19T23:29:46.320Z,67.58
2022-08-19T23:32:52.530Z,67.97
2022-08-19T23:35:59.656Z,68.21
2022-08-19T23:39:03.449Z,68.26
2022-08-19T23:42:12.538Z,68.48
2022-08-19T23:45:27.432Z,68.52
2022-08-19T23:48:33.085Z,68.17
2022-08-19T23:51:36.768Z,68.21
2022-08-19T23:54:43.376Z,68.55
2022-08-19T23:57:47.714Z,68.79
